createdAt,value
2023-01-04T00:01:25.587Z,68.31
2023-01-04T00:08:17.033Z,68.68
2023-01-04T00:10:19.144Z,68.73
2023-01-04T00:12:21.089Z,68.71
2023-01-04T00:14:23.054Z,68.64
2023-01-04T00:16:28.086Z,68.52
2023-01-04T00:18:31.537Z,68.47
2023-01-04T00:20:34.023Z,68.57
2023-01-04T00:22:37.005Z,68.05
2023-01-04T00:24:39.201Z,68.06
2023-01-04T00:26:42.159Z,68.17
2023-01-04T00:28:49.988Z,68.28
2023-01-04T00:30:55.988Z,68.08
2023-01-04T00:32:59.059Z,68.34
2023-01-04T00:35:01.350Z,68.23
2023-01-04T00:37:03.538Z,68.76
2023-01-04T00:39:10.305Z,68.91
2023-01-04T00:41:41.999Z,68.29
2023-01-04T00:43:35.816Z,68.42
2023-01-04T00:45:38.389Z,68.36
2023-01-04T00:47:40.635Z,68.61
2023-01-04T00:49:42.972Z,68.35
2023-01-04T00:51:45.194Z,68.54
2023-01-04T00:53:47.299Z,68.30
2023-01-04T00:55:50.159Z,68.56
2023-01-04T00:57:52.447Z,68.88
2023-01-04T00:59:54.481Z,68.47
2023-01-04T01:01:56.922Z,68.64
2023-01-04T01:04:02.641Z,68.57
2023-01-04T01:06:07.256Z,68.51
2023-01-04T01:08:26.136Z,68.38
2023-01-04T01:10:28.706Z,68.47
2023-01-04T01:12:31.123Z,68.43
2023-01-04T01:14:33.591Z,68.16
2023-01-04T01:16:54.213Z,68.37
2023-01-04T01:18:57.825Z,68.29
2023-01-04T01:21:00.329Z,68.20
2023-01-04T01:23:02.601Z,68.73
2023-01-04T01:25:05.307Z,68.42
2023-01-04T01:27:07.587Z,68.44
2023-01-04T01:29:09.729Z,68.38
2023-01-04T01:31:15.846Z,68.48
2023-01-04T01:33:18.108Z,68.38
2023-01-04T01:35:22.180Z,68.44
2023-01-04T01:37:24.265Z,68.25
2023-01-04T01:39:26.378Z,68.49
2023-01-04T01:41:31.091Z,68.67
2023-01-04T01:43:57.626Z,68.34
2023-01-04T01:45:59.815Z,68.25
2023-01-04T01:48:07.431Z,68.53
2023-01-04T01:50:26.144Z,68.19
2023-01-04T01:52:33.143Z,68.62
2023-01-04T01:54:46.546Z,68.56
2023-01-04T01:56:51.554Z,68.75
2023-01-04T01:58:59.232Z,68.39
2023-01-04T02:01:02.137Z,68.37
2023-01-04T02:03:36.265Z,68.29
2023-01-04T02:05:39.331Z,68.50
2023-01-04T02:07:42.263Z,68.36
2023-01-04T02:09:45.548Z,68.22
2023-01-04T02:11:47.701Z,68.55
2023-01-04T02:14:09.392Z,68.42
2023-01-04T02:16:20.617Z,68.29
2023-01-04T02:18:33.621Z,68.35
2023-01-04T02:20:44.971Z,68.08
2023-01-04T02:23:44.120Z,68.48
2023-01-04T02:25:58.109Z,68.43
2023-01-04T02:28:29.889Z,68.38
2023-01-04T02:30:44.371Z,68.19
2023-01-04T02:33:08.182Z,68.29
2023-01-04T02:35:25.829Z,68.40
2023-01-04T02:37:52.152Z,68.29
2023-01-04T02:40:03.057Z,68.22
2023-01-04T02:42:10.899Z,68.27
2023-01-04T02:44:40.074Z,68.39
2023-01-04T02:46:50.920Z,68.10
2023-01-04T02:49:17.048Z,68.34
2023-01-04T02:51:34.917Z,68.43
2023-01-04T02:53:40.269Z,68.27
2023-01-04T02:55:48.184Z,68.39
2023-01-04T02:58:08.135Z,68.50
2023-01-04T03:01:07.926Z,68.45
2023-01-04T03:03:47.115Z,68.02
2023-01-04T03:06:16.817Z,68.56
2023-01-04T03:08:44.113Z,68.12
2023-01-04T03:11:31.441Z,67.84
2023-01-04T03:13:42.842Z,68.37
2023-01-04T03:15:52.865Z,68.09
2023-01-04T03:17:58.958Z,68.31
2023-01-04T03:20:01.912Z,68.43
2023-01-04T03:22:06.254Z,68.22
2023-01-04T03:24:29.221Z,68.51
2023-01-04T03:26:54.980Z,68.48
2023-01-04T03:29:22.787Z,68.28
2023-01-04T03:31:53.372Z,68.15
2023-01-04T03:34:14.411Z,68.49
2023-01-04T03:36:43.966Z,68.24
2023-01-04T03:39:20.501Z,68.16
2023-01-04T03:42:06.529Z,68.06
2023-01-04T03:44:39.223Z,68.18
2023-01-04T03:47:15.347Z,67.95
2023-01-04T03:49:23.666Z,67.95
2023-01-04T03:51:36.101Z,68.45
2023-01-04T03:53:56.151Z,68.37
2023-01-04T03:56:00.161Z,68.33
2023-01-04T03:58:05.547Z,68.34
2023-01-04T04:00:14.970Z,68.55
2023-01-04T04:02:22.697Z,68.70
2023-01-04T04:04:43.545Z,68.29
2023-01-04T04:07:03.975Z,68.31
2023-01-04T04:09:08.040Z,68.60
2023-01-04T04:11:29.078Z,68.62
2023-01-04T04:13:34.178Z,68.52
2023-01-04T04:15:37.029Z,68.72
2023-01-04T04:17:39.444Z,68.60
2023-01-04T04:19:41.611Z,68.65
2023-01-04T04:21:43.987Z,68.29
2023-01-04T04:23:46.583Z,68.40
2023-01-04T04:25:51.953Z,68.49
2023-01-04T04:27:54.325Z,68.83
2023-01-04T04:29:57.096Z,68.84
2023-01-04T04:31:59.651Z,68.31
2023-01-04T04:34:02.232Z,68.40
2023-01-04T04:36:05.155Z,68.37
2023-01-04T04:38:07.491Z,68.63
2023-01-04T04:40:30.632Z,68.64
2023-01-04T04:42:32.767Z,68.65
2023-01-04T04:44:35.709Z,68.25
2023-01-04T04:46:38.718Z,68.53
2023-01-04T04:48:41.593Z,68.36
2023-01-04T04:50:43.958Z,68.44
2023-01-04T04:52:50.976Z,68.41
2023-01-04T04:54:56.483Z,68.20
2023-01-04T04:56:58.671Z,68.10
2023-01-04T04:59:01.167Z,68.05
2023-01-04T05:01:03.565Z,68.29
2023-01-04T05:03:05.956Z,68.10
2023-01-04T05:05:08.768Z,68.67
2023-01-04T05:07:12.757Z,68.41
2023-01-04T05:09:15.538Z,68.02
2023-01-04T05:11:37.983Z,68.06
2023-01-04T05:13:40.508Z,67.86
2023-01-04T05:15:48.367Z,68.18
2023-01-04T05:17:50.766Z,68.10
2023-01-04T05:19:52.977Z,68.03
2023-01-04T05:21:55.092Z,67.72
2023-01-04T05:23:57.315Z,67.93
2023-01-04T05:26:02.129Z,67.86
2023-01-04T05:28:04.704Z,67.95
2023-01-04T05:30:25.781Z,67.88
2023-01-04T05:32:28.160Z,68.02
2023-01-04T05:34:30.706Z,68.03
2023-01-04T05:36:32.968Z,67.92
2023-01-04T05:38:38.876Z,67.60
2023-01-04T05:40:41.500Z,67.72
2023-01-04T05:42:44.188Z,67.66
2023-01-04T05:44:46.468Z,67.66
2023-01-04T05:46:48.664Z,67.69
2023-01-04T05:48:51.199Z,67.51
2023-01-04T05:50:53.941Z,67.95
2023-01-04T05:53:21.746Z,68.07
2023-01-04T05:55:24.416Z,68.04
2023-01-04T05:57:27.173Z,68.19
2023-01-04T05:59:29.356Z,68.05
2023-01-04T06:01:32.208Z,67.81
2023-01-04T06:03:34.779Z,67.84
2023-01-04T06:05:37.447Z,67.51
2023-01-04T06:07:40.937Z,67.82
2023-01-04T06:09:43.545Z,67.40
2023-01-04T06:11:46.027Z,67.51
2023-01-04T06:13:48.366Z,67.38
2023-01-04T06:15:50.965Z,67.06
2023-01-04T06:17:53.224Z,66.77
2023-01-04T06:19:55.681Z,67.15
2023-01-04T06:21:58.578Z,67.01
2023-01-04T06:24:01.156Z,66.83
2023-01-04T06:26:03.326Z,66.89
2023-01-04T06:28:08.325Z,66.59
2023-01-04T06:30:13.695Z,66.76
2023-01-04T06:32:16.208Z,67.44
2023-01-04T06:34:18.466Z,67.50
2023-01-04T06:36:21.036Z,67.93
2023-01-04T06:38:23.458Z,67.88
2023-01-04T06:40:26.047Z,67.73
2023-01-04T06:42:46.465Z,68.22
2023-01-04T06:44:48.888Z,67.81
2023-01-04T06:46:51.462Z,67.82
2023-01-04T06:48:55.288Z,67.75
2023-01-04T06:51:00.135Z,67.78
2023-01-04T06:53:02.410Z,67.77
2023-01-04T06:55:06.085Z,68.17
2023-01-04T06:57:08.663Z,67.87
2023-01-04T06:59:11.420Z,68.19
2023-01-04T07:01:13.784Z,68.39
2023-01-04T07:03:16.550Z,68.73
2023-01-04T07:05:19.172Z,68.14
2023-01-04T07:07:24.253Z,68.63
2023-01-04T07:09:26.737Z,68.63
2023-01-04T07:11:29.052Z,68.82
2023-01-04T07:13:31.688Z,69.19
2023-01-04T07:15:39.220Z,68.67
2023-01-04T07:17:42.788Z,68.46
2023-01-04T07:19:45.131Z,68.55
2023-01-04T07:21:47.356Z,68.81
2023-01-04T07:23:49.569Z,68.68
2023-01-04T07:25:55.047Z,69.01
2023-01-04T07:27:57.507Z,68.75
2023-01-04T07:29:59.705Z,68.94
2023-01-04T07:32:02.216Z,69.03
2023-01-04T07:34:04.654Z,68.77
2023-01-04T07:36:07.448Z,69.14
2023-01-04T07:38:09.823Z,69.29
2023-01-04T07:40:12.462Z,69.64
2023-01-04T07:42:16.694Z,69.21
2023-01-04T07:44:18.864Z,68.82
2023-01-04T07:46:22.423Z,68.75
2023-01-04T07:48:24.704Z,68.89
2023-01-04T07:50:26.994Z,68.73
2023-01-04T07:52:29.196Z,68.86
2023-01-04T07:54:31.813Z,68.81
2023-01-04T07:56:33.884Z,68.79
2023-01-04T07:58:36.747Z,68.83
2023-01-04T08:00:38.980Z,68.70
2023-01-04T08:02:41.132Z,68.61
2023-01-04T08:04:46.272Z,69.00
2023-01-04T08:06:48.750Z,68.91
2023-01-04T08:08:50.977Z,68.79
2023-01-04T08:10:53.094Z,68.55
2023-01-04T08:13:03.555Z,68.96
2023-01-04T08:15:06.732Z,68.75
2023-01-04T08:17:10.419Z,68.85
2023-01-04T08:19:13.997Z,68.99
2023-01-04T08:21:16.498Z,68.56
2023-01-04T08:23:22.018Z,68.75
2023-01-04T08:25:24.454Z,68.71
2023-01-04T08:27:26.669Z,68.83
2023-01-04T08:29:34.611Z,68.73
2023-01-04T08:31:37.561Z,69.01
2023-01-04T08:33:40.309Z,68.80
2023-01-04T08:35:43.847Z,68.75
2023-01-04T08:37:46.192Z,68.97
2023-01-04T08:39:49.525Z,68.79
2023-01-04T08:42:02.129Z,68.74
2023-01-04T08:44:10.241Z,68.79
2023-01-04T08:46:14.204Z,69.07
2023-01-04T08:48:22.611Z,69.05
2023-01-04T08:50:26.566Z,69.47
2023-01-04T08:52:28.932Z,69.25
2023-01-04T08:54:31.162Z,68.82
2023-01-04T08:56:33.393Z,68.75
2023-01-04T08:58:37.559Z,68.76
2023-01-04T09:00:41.583Z,68.82
2023-01-04T09:02:43.952Z,68.60
2023-01-04T09:04:46.123Z,68.86
2023-01-04T09:06:49.026Z,68.45
2023-01-04T09:08:51.602Z,68.73
2023-01-04T09:10:56.284Z,68.72
2023-01-04T09:12:58.484Z,68.62
2023-01-04T09:15:00.723Z,68.50
2023-01-04T09:17:02.980Z,68.71
2023-01-04T09:19:06.888Z,68.58
2023-01-04T09:21:11.347Z,68.44
2023-01-04T09:23:13.670Z,68.23
2023-01-04T09:25:15.916Z,68.55
2023-01-04T09:27:20.496Z,68.39
2023-01-04T09:29:24.691Z,68.54
2023-01-04T09:31:28.655Z,68.21
2023-01-04T09:34:04.000Z,68.31
2023-01-04T09:36:00.639Z,68.27
2023-01-04T09:38:03.159Z,68.23
2023-01-04T09:40:05.742Z,67.90
2023-01-04T09:42:35.069Z,68.36
2023-01-04T09:45:21.879Z,68.04
2023-01-04T09:47:22.861Z,68.49
2023-01-04T09:49:32.958Z,68.38
2023-01-04T09:51:39.006Z,68.74
2023-01-04T09:53:46.640Z,68.79
2023-01-04T09:55:52.876Z,68.81
2023-01-04T09:58:34.316Z,69.29
2023-01-04T10:00:45.235Z,68.71
2023-01-04T10:03:02.322Z,69.09
2023-01-04T10:05:07.413Z,68.96
2023-01-04T10:07:21.714Z,69.27
2023-01-04T10:09:24.284Z,69.55
2023-01-04T10:11:28.880Z,69.26
2023-01-04T10:13:33.853Z,69.20
2023-01-04T10:15:51.905Z,68.95
2023-01-04T10:19:28.704Z,69.44
2023-01-04T10:21:31.492Z,69.87
2023-01-04T10:23:53.762Z,69.63
2023-01-04T10:26:18.188Z,69.63
2023-01-04T10:28:42.936Z,69.42
2023-01-04T10:30:55.021Z,69.12
2023-01-04T10:33:12.788Z,69.31
2023-01-04T10:35:21.827Z,69.24
2023-01-04T10:37:37.632Z,68.79
2023-01-04T10:39:40.552Z,68.72
2023-01-04T10:41:50.941Z,68.75
2023-01-04T10:44:10.837Z,68.63
2023-01-04T10:46:43.284Z,69.02
2023-01-04T10:48:55.718Z,69.07
2023-01-04T10:51:07.049Z,68.96
2023-01-04T10:53:23.815Z,69.22
2023-01-04T10:55:32.434Z,68.97
2023-01-04T10:57:41.195Z,69.36
2023-01-04T10:59:52.506Z,69.12
2023-01-04T11:02:01.070Z,69.20
2023-01-04T11:04:10.757Z,69.17
2023-01-04T11:06:34.143Z,68.81
2023-01-04T11:08:47.660Z,69.28
2023-01-04T11:11:06.247Z,68.65
2023-01-04T11:13:08.304Z,68.95
2023-01-04T11:15:10.843Z,68.63
2023-01-04T11:17:14.358Z,68.97
2023-01-04T11:19:16.728Z,68.88
2023-01-04T11:21:24.034Z,68.53
2023-01-04T11:23:26.116Z,68.90
2023-01-04T11:25:37.240Z,68.42
2023-01-04T11:27:51.010Z,68.45
2023-01-04T11:29:59.218Z,68.34
2023-01-04T11:32:07.130Z,68.48
2023-01-04T11:34:09.291Z,68.18
2023-01-04T11:36:31.228Z,68.42
2023-01-04T11:38:33.566Z,68.45
2023-01-04T11:40:36.056Z,68.33
2023-01-04T11:42:38.199Z,68.08
2023-01-04T11:44:42.104Z,68.25
2023-01-04T11:46:44.442Z,67.95
2023-01-04T11:48:48.744Z,67.92
2023-01-04T11:50:56.071Z,68.24
2023-01-04T11:52:58.031Z,68.20
2023-01-04T11:55:25.831Z,68.09
2023-01-04T11:57:28.066Z,68.14
2023-01-04T11:59:30.158Z,68.00
2023-01-04T12:09:31.427Z,67.62
2023-01-04T12:11:40.208Z,67.65
2023-01-04T12:13:42.331Z,67.29
2023-01-04T12:15:50.354Z,67.26
2023-01-04T12:18:22.649Z,65.98
2023-01-04T12:20:28.979Z,66.05
2023-01-04T12:22:39.221Z,66.69
2023-01-04T12:24:45.592Z,66.97
2023-01-04T12:26:48.854Z,66.68
2023-01-04T12:29:12.764Z,66.67
2023-01-04T12:31:21.458Z,66.35
2023-01-04T12:33:33.090Z,66.16
2023-01-04T12:36:04.989Z,65.55
2023-01-04T12:38:09.651Z,66.21
2023-01-04T12:40:45.556Z,65.41
2023-01-04T12:43:16.703Z,65.33
2023-01-04T12:45:22.159Z,65.43
2023-01-04T12:47:45.944Z,65.87
2023-01-04T12:49:56.843Z,64.79
2023-01-04T12:55:04.830Z,64.94
2023-01-04T12:57:16.856Z,64.74
2023-01-04T12:59:51.997Z,64.80
2023-01-04T13:02:16.854Z,65.18
2023-01-04T13:04:39.205Z,65.35
2023-01-04T13:06:46.098Z,65.13
2023-01-04T13:08:51.631Z,65.82
2023-01-04T13:10:55.954Z,65.91
2023-01-04T13:13:01.527Z,65.57
2023-01-04T13:15:17.595Z,65.53
2023-01-04T13:17:24.045Z,65.64
2023-01-04T13:19:28.888Z,65.48
2023-01-04T13:21:43.017Z,65.75
2023-01-04T13:24:00.860Z,65.69
2023-01-04T13:26:42.893Z,65.86
2023-01-04T13:28:45.337Z,65.67
2023-01-04T13:30:47.618Z,65.39
2023-01-04T13:33:24.397Z,65.75
2023-01-04T13:35:15.258Z,65.13
2023-01-04T13:37:28.335Z,65.18
2023-01-04T13:39:30.749Z,64.84
2023-01-04T13:41:33.123Z,64.73
2023-01-04T13:43:41.548Z,64.46
2023-01-04T13:45:50.049Z,64.74
2023-01-04T13:47:56.884Z,64.62
2023-01-04T13:50:01.741Z,64.93
2023-01-04T13:52:56.433Z,65.75
2023-01-04T13:55:23.228Z,64.81
2023-01-04T13:57:25.601Z,64.80
2023-01-04T13:59:27.666Z,65.09
2023-01-04T14:01:31.259Z,65.19
2023-01-04T14:03:41.808Z,64.65
2023-01-04T14:05:52.251Z,64.72
2023-01-04T14:07:54.666Z,64.81
2023-01-04T14:10:00.733Z,64.88
2023-01-04T14:12:14.824Z,64.94
2023-01-04T14:15:03.966Z,64.24
2023-01-04T14:17:34.396Z,64.17
2023-01-04T14:19:41.577Z,64.50
2023-01-04T14:21:43.680Z,64.69
2023-01-04T14:23:46.061Z,64.66
2023-01-04T14:25:56.496Z,64.62
2023-01-04T14:28:44.623Z,64.69
2023-01-04T14:31:15.003Z,65.35
2023-01-04T14:33:33.045Z,65.09
2023-01-04T14:35:38.337Z,65.39
2023-01-04T14:37:43.956Z,65.47
2023-01-04T14:39:46.137Z,65.65
2023-01-04T14:41:51.801Z,65.67
2023-01-04T14:44:09.713Z,65.28
2023-01-04T14:46:11.694Z,64.93
2023-01-04T14:48:16.135Z,64.94
2023-01-04T14:50:24.360Z,65.11
2023-01-04T14:52:26.440Z,65.27
2023-01-04T14:54:30.346Z,65.13
2023-01-04T14:56:33.529Z,65.05
2023-01-04T14:58:35.784Z,65.29
2023-01-04T15:00:38.183Z,64.80
2023-01-04T15:02:40.617Z,64.72
2023-01-04T15:04:42.909Z,64.95
2023-01-04T15:06:54.331Z,64.72
2023-01-04T15:08:56.315Z,65.03
2023-01-04T15:11:00.383Z,65.11
2023-01-04T15:13:04.489Z,65.10
2023-01-04T15:15:07.255Z,65.33
2023-01-04T15:17:10.464Z,65.51
2023-01-04T15:19:12.821Z,65.30
2023-01-04T15:21:15.327Z,65.35
2023-01-04T15:23:17.442Z,64.97
2023-01-04T15:25:19.542Z,65.27
2023-01-04T15:27:24.446Z,65.31
2023-01-04T15:29:31.104Z,65.56
2023-01-04T15:31:38.931Z,65.13
2023-01-04T15:33:42.116Z,64.94
2023-01-04T15:35:43.959Z,65.10
2023-01-04T15:37:47.008Z,65.11
2023-01-04T15:39:49.102Z,65.36
2023-01-04T15:42:09.820Z,65.53
2023-01-04T15:44:12.081Z,65.72
2023-01-04T15:46:16.996Z,65.56
2023-01-04T15:49:22.566Z,65.78
2023-01-04T15:51:25.026Z,65.74
2023-01-04T15:53:53.123Z,66.18
2023-01-04T15:55:55.495Z,66.20
2023-01-04T15:57:57.549Z,66.07
2023-01-04T15:59:59.672Z,65.96
2023-01-04T16:02:01.870Z,66.19
2023-01-04T16:04:06.801Z,66.32
2023-01-04T16:06:12.065Z,66.48
2023-01-04T16:08:14.351Z,66.71
2023-01-04T16:10:16.677Z,66.76
2023-01-04T16:12:37.663Z,66.81
2023-01-04T16:14:39.693Z,66.75
2023-01-04T16:16:41.640Z,67.14
2023-01-04T16:18:52.580Z,68.09
2023-01-04T16:20:54.496Z,67.32
2023-01-04T16:22:56.467Z,67.86
2023-01-04T16:25:13.734Z,67.58
2023-01-04T16:27:16.038Z,67.70
2023-01-04T16:29:19.711Z,67.50
2023-01-04T16:31:22.881Z,67.58
2023-01-04T16:33:25.074Z,67.12
2023-01-04T16:35:27.110Z,67.21
2023-01-04T16:37:30.670Z,67.33
2023-01-04T16:41:54.995Z,67.56
2023-01-04T16:44:01.151Z,67.66
2023-01-04T16:46:26.770Z,67.71
2023-01-04T16:48:28.806Z,67.36
2023-01-04T16:50:31.088Z,67.16
2023-01-04T16:52:33.069Z,67.04
2023-01-04T16:54:37.179Z,67.09
2023-01-04T16:56:40.137Z,67.13
2023-01-04T16:58:45.455Z,67.09
2023-01-04T17:00:47.515Z,67.18
2023-01-04T17:02:49.821Z,67.60
2023-01-04T17:04:57.144Z,67.75
2023-01-04T17:06:59.396Z,67.26
2023-01-04T17:09:03.488Z,67.48
2023-01-04T17:13:36.683Z,67.90
2023-01-04T17:15:43.757Z,67.74
2023-01-04T17:17:46.664Z,67.84
2023-01-04T17:19:48.555Z,68.11
2023-01-04T17:21:50.803Z,68.42
2023-01-04T17:23:56.407Z,68.17
2023-01-04T17:26:04.380Z,68.87
2023-01-04T17:28:06.789Z,69.10
2023-01-04T17:30:10.065Z,68.53
2023-01-04T17:32:12.278Z,68.31
2023-01-04T17:34:22.443Z,68.40
2023-01-04T17:36:25.817Z,68.67
2023-01-04T17:38:27.858Z,68.77
2023-01-04T17:40:30.218Z,68.99
2023-01-04T17:42:35.253Z,68.83
2023-01-04T17:44:37.272Z,68.36
2023-01-04T17:46:39.399Z,68.69
2023-01-04T17:48:42.024Z,68.75
2023-01-04T17:50:44.044Z,68.78
2023-01-04T17:52:47.896Z,68.88
2023-01-04T17:54:49.848Z,68.78
2023-01-04T17:56:52.180Z,68.81
2023-01-04T17:58:54.277Z,69.11
2023-01-04T18:00:56.758Z,68.96
2023-01-04T18:02:59.925Z,68.71
2023-01-04T18:05:02.979Z,69.14
2023-01-04T18:07:05.154Z,68.51
2023-01-04T18:09:09.204Z,68.47
2023-01-04T18:11:12.237Z,68.24
2023-01-04T18:13:14.718Z,68.80
2023-01-04T18:15:16.987Z,68.77
2023-01-04T18:17:18.941Z,68.80
2023-01-04T18:19:25.501Z,68.36
2023-01-04T18:21:31.082Z,68.53
2023-01-04T18:23:33.363Z,68.24
2023-01-04T18:25:35.343Z,67.86
2023-01-04T18:27:37.436Z,67.95
2023-01-04T18:29:39.378Z,68.06
2023-01-04T18:31:41.368Z,67.56
2023-01-04T18:33:43.922Z,67.54
2023-01-04T18:35:46.084Z,67.63
2023-01-04T18:37:48.025Z,67.27
2023-01-04T18:39:50.094Z,67.38
2023-01-04T18:41:52.112Z,67.27
2023-01-04T18:44:13.353Z,67.39
2023-01-04T18:46:17.591Z,67.09
2023-01-04T18:48:19.613Z,67.42
2023-01-04T18:50:22.046Z,67.51
2023-01-04T18:52:24.027Z,67.29
2023-01-04T18:54:28.886Z,67.35
2023-01-04T18:56:30.851Z,67.28
2023-01-04T18:58:33.206Z,67.34
2023-01-04T19:00:35.309Z,67.56
2023-01-04T19:02:37.719Z,67.30
2023-01-04T19:04:42.980Z,66.90
2023-01-04T19:06:45.187Z,67.62
2023-01-04T19:08:55.072Z,67.53
2023-01-04T19:10:58.948Z,67.07
2023-01-04T19:13:00.902Z,66.73
2023-01-04T19:15:06.760Z,66.79
2023-01-04T19:17:10.021Z,66.84
2023-01-04T19:19:12.132Z,66.33
2023-01-04T19:21:14.262Z,66.68
2023-01-04T19:23:16.352Z,66.36
2023-01-04T19:25:23.175Z,66.32
2023-01-04T19:27:28.377Z,66.27
2023-01-04T19:29:31.674Z,66.05
2023-01-04T19:31:34.831Z,66.10
2023-01-04T19:33:37.783Z,66.25
2023-01-04T19:35:48.472Z,65.37
2023-01-04T19:37:50.632Z,65.70
2023-01-04T19:39:52.777Z,65.91
2023-01-04T19:41:54.843Z,66.09
2023-01-04T19:43:56.907Z,65.79
2023-01-04T19:45:59.635Z,65.65
2023-01-04T19:48:01.758Z,65.42
2023-01-04T19:50:05.394Z,65.68
2023-01-04T19:52:07.754Z,65.83
2023-01-04T19:54:10.338Z,65.91
2023-01-04T19:56:14.099Z,65.40
2023-01-04T19:58:17.782Z,65.50
2023-01-04T20:00:20.039Z,65.48
2023-01-04T20:02:22.566Z,65.78
2023-01-04T20:04:27.718Z,65.16
2023-01-04T20:06:30.031Z,65.60
2023-01-04T20:08:32.480Z,65.69
2023-01-04T20:10:34.799Z,65.20
2023-01-04T20:12:36.852Z,65.53
2023-01-04T20:14:39.476Z,65.39
2023-01-04T20:16:41.640Z,65.35
2023-01-04T20:18:43.952Z,65.56
2023-01-04T20:20:47.408Z,65.53
2023-01-04T20:22:49.935Z,65.75
2023-01-04T20:24:52.110Z,65.92
2023-01-04T20:26:57.951Z,65.76
2023-01-04T20:28:59.947Z,65.99
2023-01-04T20:31:11.102Z,65.67
2023-01-04T20:33:13.263Z,65.69
2023-01-04T20:35:15.558Z,65.45
2023-01-04T20:37:18.094Z,65.28
2023-01-04T20:39:20.200Z,65.50
2023-01-04T20:41:23.867Z,65.36
2023-01-04T20:43:34.978Z,65.27
2023-01-04T20:45:48.051Z,65.35
2023-01-04T20:47:50.378Z,65.20
2023-01-04T20:49:52.888Z,65.15
2023-01-04T20:51:55.250Z,65.22
2023-01-04T20:54:01.847Z,65.25
2023-01-04T20:56:11.308Z,65.46
2023-01-04T20:58:17.394Z,65.49
2023-01-04T21:00:19.623Z,65.26
2023-01-04T21:02:21.829Z,64.99
2023-01-04T21:04:24.571Z,64.79
2023-01-04T21:06:26.649Z,64.72
2023-01-04T21:08:29.576Z,64.36
2023-01-04T21:10:31.676Z,64.40
2023-01-04T21:12:34.136Z,64.73
2023-01-04T21:14:38.319Z,64.09
2023-01-04T21:16:42.134Z,64.29
2023-01-04T21:18:44.434Z,64.55
2023-01-04T21:20:46.550Z,64.15
2023-01-04T21:22:48.798Z,64.18
2023-01-04T21:24:50.866Z,63.91
2023-01-04T21:26:53.005Z,63.83
2023-01-04T21:28:54.985Z,63.66
2023-01-04T21:30:57.077Z,63.73
2023-01-04T21:33:01.961Z,63.36
2023-01-04T21:35:04.625Z,63.42
2023-01-04T21:37:06.730Z,63.38
2023-01-04T21:39:09.150Z,63.06
2023-01-04T21:41:13.847Z,63.03
2023-01-04T21:43:41.400Z,62.90
2023-01-04T21:45:43.900Z,63.61
2023-01-04T21:47:46.648Z,63.36
2023-01-04T21:49:48.966Z,63.49
2023-01-04T21:51:50.993Z,63.68
2023-01-04T21:53:53.279Z,63.77
2023-01-04T21:56:06.699Z,63.22
2023-01-04T21:58:09.187Z,63.72
2023-01-04T22:00:11.694Z,63.59
2023-01-04T22:02:19.665Z,63.40
2023-01-04T22:04:21.835Z,63.44
2023-01-04T22:06:25.228Z,63.53
2023-01-04T22:08:27.487Z,63.10
2023-01-04T22:10:29.572Z,63.37
2023-01-04T22:12:31.494Z,63.22
2023-01-04T22:14:34.180Z,63.44
2023-01-04T22:16:36.326Z,62.96
2023-01-04T22:18:38.947Z,62.77
2023-01-04T22:20:41.064Z,63.12
2023-01-04T22:22:43.246Z,63.22
2023-01-04T22:24:45.251Z,62.88
2023-01-04T22:26:49.390Z,63.01
2023-01-04T22:28:51.636Z,62.89
2023-01-04T22:30:54.106Z,62.48
2023-01-04T22:32:56.329Z,62.96
2023-01-04T22:34:58.681Z,62.31
2023-01-04T22:37:00.793Z,62.11
2023-01-04T22:39:02.851Z,62.55
2023-01-04T22:41:12.313Z,62.28
2023-01-04T22:43:14.418Z,62.54
2023-01-04T22:45:16.400Z,62.47
2023-01-04T22:47:18.741Z,62.10
2023-01-04T22:49:20.723Z,62.65
2023-01-04T22:51:24.333Z,62.13
2023-01-04T22:53:26.449Z,62.36
2023-01-04T22:55:45.706Z,62.32
2023-01-04T22:57:50.919Z,62.27
2023-01-04T22:59:52.989Z,61.91
2023-01-04T23:01:55.201Z,61.84
2023-01-04T23:03:59.161Z,61.76
2023-01-04T23:06:05.495Z,61.73
2023-01-04T23:08:07.567Z,61.74
2023-01-04T23:10:09.938Z,61.92
2023-01-04T23:12:12.016Z,61.75
2023-01-04T23:14:16.668Z,61.80
2023-01-04T23:16:19.476Z,61.79
2023-01-04T23:18:21.544Z,61.49
2023-01-04T23:20:23.615Z,61.67
2023-01-04T23:22:25.812Z,61.81
2023-01-04T23:24:27.910Z,62.23
2023-01-04T23:26:31.596Z,62.01
2023-01-04T23:28:37.278Z,61.53
2023-01-04T23:30:40.296Z,61.45
2023-01-04T23:32:42.699Z,61.79
2023-01-04T23:34:44.826Z,62.17
2023-01-04T23:36:46.861Z,61.63
2023-01-04T23:38:54.656Z,61.90
2023-01-04T23:40:56.744Z,61.64
2023-01-04T23:42:59.643Z,61.73
2023-01-04T23:45:04.757Z,61.09
2023-01-04T23:47:07.633Z,61.40
2023-01-04T23:49:10.524Z,61.61
2023-01-04T23:51:13.288Z,61.46
2023-01-04T23:53:20.573Z,61.46
2023-01-04T23:55:22.837Z,61.72
2023-01-04T23:57:24.829Z,61.75
2023-01-04T23:59:27.265Z,61.77
